sensor_id;sensor_type;location;lat;lon;timestamp;temperature;humidity
3942;DHT22;1985;48.592;8.850;2022-09-14T00:01:57;21.40;95.90
3942;DHT22;1985;48.592;8.850;2022-09-14T00:04:24;21.30;96.60
3942;DHT22;1985;48.592;8.850;2022-09-14T00:06:50;21.30;96.30
3942;DHT22;1985;48.592;8.850;2022-09-14T00:09:22;21.20;95.90
3942;DHT22;1985;48.592;8.850;2022-09-14T00:11:48;21.30;97.90
3942;DHT22;1985;48.592;8.850;2022-09-14T00:14:15;21.50;97.60
3942;DHT22;1985;48.592;8.850;2022-09-14T00:16:41;21.60;97.40
3942;DHT22;1985;48.592;8.850;2022-09-14T00:19:18;21.60;97.50
3942;DHT22;1985;48.592;8.850;2022-09-14T00:21:44;21.60;97.80
3942;DHT22;1985;48.592;8.850;2022-09-14T00:24:10;21.50;96.90
3942;DHT22;1985;48.592;8.850;2022-09-14T00:26:36;21.40;97.10
3942;DHT22;1985;48.592;8.850;2022-09-14T00:29:04;21.40;98.10
3942;DHT22;1985;48.592;8.850;2022-09-14T00:31:34;21.20;96.80
3942;DHT22;1985;48.592;8.850;2022-09-14T00:34:01;21.20;97.70
3942;DHT22;1985;48.592;8.850;2022-09-14T00:36:28;21.30;97.90
3942;DHT22;1985;48.592;8.850;2022-09-14T00:38:55;21.20;98.20
3942;DHT22;1985;48.592;8.850;2022-09-14T00:41:24;21.20;98.80
3942;DHT22;1985;48.592;8.850;2022-09-14T00:46:41;21.30;99.00
3942;DHT22;1985;48.592;8.850;2022-09-14T00:49:21;21.40;99.40
3942;DHT22;1985;48.592;8.850;2022-09-14T00:51:53;21.40;99.30
3942;DHT22;1985;48.592;8.850;2022-09-14T00:54:22;21.20;99.90
3942;DHT22;1985;48.592;8.850;2022-09-14T00:56:48;21.10;99.90
3942;DHT22;1985;48.592;8.850;2022-09-14T00:59:22;21.00;99.90
3942;DHT22;1985;48.592;8.850;2022-09-14T01:01:48;21.00;99.90
3942;DHT22;1985;48.592;8.850;2022-09-14T01:04:14;20.70;99.90
3942;DHT22;1985;48.592;8.850;2022-09-14T01:06:57;20.20;99.90
3942;DHT22;1985;48.592;8.850;2022-09-14T01:27:48;18.10;99.90
3942;DHT22;1985;48.592;8.850;2022-09-14T01:30:20;18.10;99.90
3942;DHT22;1985;48.592;8.850;2022-09-14T01:33:12;18.00;99.90
3942;DHT22;1985;48.592;8.850;2022-09-14T01:35:46;18.00;99.90
3942;DHT22;1985;48.592;8.850;2022-09-14T01:38:19;17.90;99.90
3942;DHT22;1985;48.592;8.850;2022-09-14T01:40:48;17.90;99.90
3942;DHT22;1985;48.592;8.850;2022-09-14T01:45:59;17.80;99.90
3942;DHT22;1985;48.592;8.850;2022-09-14T01:48:32;17.70;99.90
3942;DHT22;1985;48.592;8.850;2022-09-14T01:51:00;17.70;99.90
3942;DHT22;1985;48.592;8.850;2022-09-14T01:53:40;17.70;99.90
3942;DHT22;1985;48.592;8.850;2022-09-14T01:56:29;17.70;99.90
3942;DHT22;1985;48.592;8.850;2022-09-14T02:01:46;17.80;99.90
3942;DHT22;1985;48.592;8.850;2022-09-14T02:04:17;17.80;99.90
3942;DHT22;1985;48.592;8.850;2022-09-14T02:06:46;17.80;99.90
3942;DHT22;1985;48.592;8.850;2022-09-14T02:09:17;17.90;99.90
3942;DHT22;1985;48.592;8.850;2022-09-14T02:11:43;17.80;99.90
3942;DHT22;1985;48.592;8.850;2022-09-14T02:14:09;17.90;99.90
3942;DHT22;1985;48.592;8.850;2022-09-14T02:16:35;17.90;99.90
3942;DHT22;1985;48.592;8.850;2022-09-14T02:19:01;17.90;99.90
3942;DHT22;1985;48.592;8.850;2022-09-14T02:21:30;17.90;99.90
3942;DHT22;1985;48.592;8.850;2022-09-14T02:24:00;18.00;99.90
3942;DHT22;1985;48.592;8.850;2022-09-14T02:26:27;18.10;99.90
3942;DHT22;1985;48.592;8.850;2022-09-14T02:28:54;18.30;99.90
3942;DHT22;1985;48.592;8.850;2022-09-14T02:37:26;18.50;99.90
3942;DHT22;1985;48.592;8.850;2022-09-14T02:50:35;18.30;99.90
3942;DHT22;1985;48.592;8.850;2022-09-14T02:55:59;18.30;99.90
3942;DHT22;1985;48.592;8.850;2022-09-14T02:58:42;18.50;99.90
3942;DHT22;1985;48.592;8.850;2022-09-14T03:01:14;18.40;99.90
3942;DHT22;1985;48.592;8.850;2022-09-14T03:03:40;18.20;99.90
3942;DHT22;1985;48.592;8.850;2022-09-14T03:06:06;18.20;99.90
3942;DHT22;1985;48.592;8.850;2022-09-14T03:08:32;18.10;99.90
3942;DHT22;1985;48.592;8.850;2022-09-14T03:10:58;18.10;99.90
3942;DHT22;1985;48.592;8.850;2022-09-14T03:13:24;18.10;99.90
3942;DHT22;1985;48.592;8.850;2022-09-14T03:15:50;18.30;99.90
3942;DHT22;1985;48.592;8.850;2022-09-14T03:18:16;18.40;99.90
3942;DHT22;1985;48.592;8.850;2022-09-14T03:20:42;18.50;99.90
3942;DHT22;1985;48.592;8.850;2022-09-14T03:23:08;18.60;99.90
3942;DHT22;1985;48.592;8.850;2022-09-14T03:25:39;18.70;99.90
3942;DHT22;1985;48.592;8.850;2022-09-14T03:28:06;18.80;99.90
3942;DHT22;1985;48.592;8.850;2022-09-14T03:30:33;18.90;99.90
3942;DHT22;1985;48.592;8.850;2022-09-14T03:32:59;18.80;99.90
3942;DHT22;1985;48.592;8.850;2022-09-14T03:35:27;18.70;99.90
3942;DHT22;1985;48.592;8.850;2022-09-14T03:37:52;18.60;99.90
3942;DHT22;1985;48.592;8.850;2022-09-14T03:40:18;18.60;99.90
3942;DHT22;1985;48.592;8.850;2022-09-14T03:42:46;18.70;99.90
3942;DHT22;1985;48.592;8.850;2022-09-14T03:45:14;18.60;99.90
3942;DHT22;1985;48.592;8.850;2022-09-14T03:47:40;18.60;99.90
3942;DHT22;1985;48.592;8.850;2022-09-14T03:50:08;18.60;99.90
3942;DHT22;1985;48.592;8.850;2022-09-14T03:52:34;18.70;99.90
3942;DHT22;1985;48.592;8.850;2022-09-14T03:55:00;18.80;99.90
3942;DHT22;1985;48.592;8.850;2022-09-14T03:57:26;18.80;99.90
3942;DHT22;1985;48.592;8.850;2022-09-14T03:59:52;18.80;99.90
3942;DHT22;1985;48.592;8.850;2022-09-14T04:02:17;18.80;99.90
3942;DHT22;1985;48.592;8.850;2022-09-14T04:04:43;18.80;99.90
3942;DHT22;1985;48.592;8.850;2022-09-14T04:07:09;18.70;99.90
3942;DHT22;1985;48.592;8.850;2022-09-14T04:09:34;18.80;99.90
3942;DHT22;1985;48.592;8.850;2022-09-14T04:12:00;18.80;99.90
3942;DHT22;1985;48.592;8.850;2022-09-14T04:14:25;18.90;99.90
3942;DHT22;1985;48.592;8.850;2022-09-14T04:16:51;18.90;99.90
3942;DHT22;1985;48.592;8.850;2022-09-14T04:19:17;18.80;99.90
3942;DHT22;1985;48.592;8.850;2022-09-14T04:21:42;18.70;99.90
3942;DHT22;1985;48.592;8.850;2022-09-14T04:24:11;18.70;99.90
3942;DHT22;1985;48.592;8.850;2022-09-14T04:26:37;18.70;99.90
3942;DHT22;1985;48.592;8.850;2022-09-14T04:29:03;18.70;99.90
3942;DHT22;1985;48.592;8.850;2022-09-14T04:31:30;18.70;99.90
3942;DHT22;1985;48.592;8.850;2022-09-14T04:33:56;18.70;99.90
3942;DHT22;1985;48.592;8.850;2022-09-14T04:36:23;18.70;99.90
3942;DHT22;1985;48.592;8.850;2022-09-14T04:38:53;18.70;99.90
3942;DHT22;1985;48.592;8.850;2022-09-14T04:41:19;18.80;99.90
3942;DHT22;1985;48.592;8.850;2022-09-14T04:43:47;18.70;99.90
3942;DHT22;1985;48.592;8.850;2022-09-14T04:46:28;18.90;99.90
3942;DHT22;1985;48.592;8.850;2022-09-14T04:48:53;18.90;99.90
3942;DHT22;1985;48.592;8.850;2022-09-14T04:51:22;18.90;99.90
3942;DHT22;1985;48.592;8.850;2022-09-14T04:53:50;18.90;99.90
3942;DHT22;1985;48.592;8.850;2022-09-14T04:56:17;19.00;99.90
3942;DHT22;1985;48.592;8.850;2022-09-14T04:58:45;19.10;99.90
3942;DHT22;1985;48.592;8.850;2022-09-14T05:01:17;19.10;99.90
3942;DHT22;1985;48.592;8.850;2022-09-14T05:03:43;19.10;99.90
3942;DHT22;1985;48.592;8.850;2022-09-14T05:06:11;18.90;99.90
3942;DHT22;1985;48.592;8.850;2022-09-14T05:08:37;18.80;99.90
3942;DHT22;1985;48.592;8.850;2022-09-14T05:11:05;18.70;99.90
3942;DHT22;1985;48.592;8.850;2022-09-14T05:13:31;18.70;99.90
3942;DHT22;1985;48.592;8.850;2022-09-14T05:16:08;18.70;99.90
3942;DHT22;1985;48.592;8.850;2022-09-14T05:18:35;18.60;99.90
3942;DHT22;1985;48.592;8.850;2022-09-14T05:21:05;18.60;99.90
3942;DHT22;1985;48.592;8.850;2022-09-14T05:23:31;18.60;99.90
3942;DHT22;1985;48.592;8.850;2022-09-14T05:25:58;18.60;99.90
3942;DHT22;1985;48.592;8.850;2022-09-14T05:28:24;18.60;99.90
3942;DHT22;1985;48.592;8.850;2022-09-14T05:30:50;18.70;99.90
3942;DHT22;1985;48.592;8.850;2022-09-14T05:33:15;18.80;99.90
3942;DHT22;1985;48.592;8.850;2022-09-14T05:35:41;18.80;99.90
3942;DHT22;1985;48.592;8.850;2022-09-14T05:38:07;18.90;99.90
3942;DHT22;1985;48.592;8.850;2022-09-14T05:40:32;18.90;99.90
3942;DHT22;1985;48.592;8.850;2022-09-14T05:42:58;19.00;99.90
3942;DHT22;1985;48.592;8.850;2022-09-14T05:45:23;19.10;99.90
3942;DHT22;1985;48.592;8.850;2022-09-14T05:47:49;19.20;99.90
3942;DHT22;1985;48.592;8.850;2022-09-14T05:50:15;19.30;99.90
3942;DHT22;1985;48.592;8.850;2022-09-14T05:52:40;19.40;99.90
3942;DHT22;1985;48.592;8.850;2022-09-14T05:55:06;19.40;99.90
3942;DHT22;1985;48.592;8.850;2022-09-14T05:57:32;19.40;99.90
3942;DHT22;1985;48.592;8.850;2022-09-14T05:59:58;19.40;99.90
3942;DHT22;1985;48.592;8.850;2022-09-14T06:02:23;19.50;99.90
3942;DHT22;1985;48.592;8.850;2022-09-14T06:04:49;19.60;99.90
3942;DHT22;1985;48.592;8.850;2022-09-14T06:07:15;19.60;99.90
3942;DHT22;1985;48.592;8.850;2022-09-14T06:09:41;19.60;99.90
3942;DHT22;1985;48.592;8.850;2022-09-14T06:12:07;19.50;99.90
3942;DHT22;1985;48.592;8.850;2022-09-14T06:14:32;19.60;99.90
3942;DHT22;1985;48.592;8.850;2022-09-14T06:16:58;19.60;99.90
3942;DHT22;1985;48.592;8.850;2022-09-14T06:19:25;19.60;99.90
3942;DHT22;1985;48.592;8.850;2022-09-14T06:21:51;19.70;99.90
3942;DHT22;1985;48.592;8.850;2022-09-14T06:24:17;19.70;99.90
3942;DHT22;1985;48.592;8.850;2022-09-14T06:26:42;19.70;99.90
3942;DHT22;1985;48.592;8.850;2022-09-14T06:29:08;19.70;99.90
3942;DHT22;1985;48.592;8.850;2022-09-14T06:31:34;19.80;99.90
3942;DHT22;1985;48.592;8.850;2022-09-14T06:34:00;19.80;99.90
3942;DHT22;1985;48.592;8.850;2022-09-14T06:36:27;19.80;99.90
3942;DHT22;1985;48.592;8.850;2022-09-14T06:38:54;19.90;99.90
3942;DHT22;1985;48.592;8.850;2022-09-14T06:41:24;20.00;99.90
3942;DHT22;1985;48.592;8.850;2022-09-14T06:43:58;20.20;99.90
3942;DHT22;1985;48.592;8.850;2022-09-14T06:46:31;20.30;99.90
3942;DHT22;1985;48.592;8.850;2022-09-14T06:49:03;20.50;99.90
3942;DHT22;1985;48.592;8.850;2022-09-14T06:51:40;20.70;99.90
3942;DHT22;1985;48.592;8.850;2022-09-14T06:54:09;20.80;99.90
3942;DHT22;1985;48.592;8.850;2022-09-14T06:56:38;20.90;99.90
3942;DHT22;1985;48.592;8.850;2022-09-14T06:59:05;21.00;99.90
3942;DHT22;1985;48.592;8.850;2022-09-14T07:01:31;21.10;99.90
3942;DHT22;1985;48.592;8.850;2022-09-14T07:03:57;21.20;99.90
3942;DHT22;1985;48.592;8.850;2022-09-14T07:06:29;21.30;99.90
3942;DHT22;1985;48.592;8.850;2022-09-14T07:08:55;21.30;99.90
3942;DHT22;1985;48.592;8.850;2022-09-14T07:11:23;21.20;99.90
3942;DHT22;1985;48.592;8.850;2022-09-14T07:13:51;21.00;99.90
3942;DHT22;1985;48.592;8.850;2022-09-14T07:16:19;21.10;99.90
3942;DHT22;1985;48.592;8.850;2022-09-14T07:18:45;21.00;99.90
3942;DHT22;1985;48.592;8.850;2022-09-14T07:21:13;21.10;99.90
3942;DHT22;1985;48.592;8.850;2022-09-14T07:23:42;21.20;99.90
3942;DHT22;1985;48.592;8.850;2022-09-14T07:26:20;21.20;99.90
3942;DHT22;1985;48.592;8.850;2022-09-14T07:28:48;21.40;99.90
3942;DHT22;1985;48.592;8.850;2022-09-14T07:31:18;21.40;99.90
3942;DHT22;1985;48.592;8.850;2022-09-14T07:33:46;21.50;99.90
3942;DHT22;1985;48.592;8.850;2022-09-14T07:36:12;21.50;99.90
3942;DHT22;1985;48.592;8.850;2022-09-14T07:38:38;21.40;99.90
3942;DHT22;1985;48.592;8.850;2022-09-14T07:41:04;21.40;99.90
3942;DHT22;1985;48.592;8.850;2022-09-14T07:43:30;21.50;99.90
3942;DHT22;1985;48.592;8.850;2022-09-14T07:45:55;21.50;99.90
3942;DHT22;1985;48.592;8.850;2022-09-14T07:48:22;21.50;99.90
3942;DHT22;1985;48.592;8.850;2022-09-14T07:50:57;21.60;99.90
3942;DHT22;1985;48.592;8.850;2022-09-14T07:53:23;21.60;99.90
3942;DHT22;1985;48.592;8.850;2022-09-14T07:55:48;21.70;99.90
3942;DHT22;1985;48.592;8.850;2022-09-14T07:58:14;21.70;99.90
3942;DHT22;1985;48.592;8.850;2022-09-14T08:00:39;21.90;99.90
3942;DHT22;1985;48.592;8.850;2022-09-14T08:03:06;21.80;99.90
3942;DHT22;1985;48.592;8.850;2022-09-14T08:05:31;21.80;99.90
3942;DHT22;1985;48.592;8.850;2022-09-14T08:07:57;22.10;99.90
3942;DHT22;1985;48.592;8.850;2022-09-14T08:10:23;22.20;99.90
3942;DHT22;1985;48.592;8.850;2022-09-14T08:12:52;22.30;99.90
3942;DHT22;1985;48.592;8.850;2022-09-14T08:15:19;22.40;99.90
3942;DHT22;1985;48.592;8.850;2022-09-14T08:17:44;22.40;99.90
3942;DHT22;1985;48.592;8.850;2022-09-14T08:20:10;22.30;99.90
3942;DHT22;1985;48.592;8.850;2022-09-14T08:22:36;22.30;99.90
3942;DHT22;1985;48.592;8.850;2022-09-14T08:25:01;22.30;99.90
3942;DHT22;1985;48.592;8.850;2022-09-14T08:27:27;22.30;99.90
3942;DHT22;1985;48.592;8.850;2022-09-14T08:29:53;22.40;99.90
3942;DHT22;1985;48.592;8.850;2022-09-14T08:32:18;22.30;99.90
3942;DHT22;1985;48.592;8.850;2022-09-14T08:34:44;22.30;99.90
3942;DHT22;1985;48.592;8.850;2022-09-14T08:37:09;22.30;99.90
3942;DHT22;1985;48.592;8.850;2022-09-14T08:39:36;22.30;99.90
3942;DHT22;1985;48.592;8.850;2022-09-14T08:42:02;22.30;99.90
3942;DHT22;1985;48.592;8.850;2022-09-14T08:44:46;22.40;99.90
3942;DHT22;1985;48.592;8.850;2022-09-14T08:47:29;22.60;99.90
3942;DHT22;1985;48.592;8.850;2022-09-14T08:50:04;22.80;99.90
3942;DHT22;1985;48.592;8.850;2022-09-14T08:52:34;23.00;99.90
3942;DHT22;1985;48.592;8.850;2022-09-14T08:57:52;23.30;99.90
3942;DHT22;1985;48.592;8.850;2022-09-14T09:00:40;23.30;99.90
3942;DHT22;1985;48.592;8.850;2022-09-14T09:08:38;23.30;99.90
3942;DHT22;1985;48.592;8.850;2022-09-14T09:11:16;23.70;99.90
3942;DHT22;1985;48.592;8.850;2022-09-14T09:13:44;23.70;99.90
3942;DHT22;1985;48.592;8.850;2022-09-14T09:16:11;23.50;99.90
3942;DHT22;1985;48.592;8.850;2022-09-14T09:21:17;23.20;99.90
3942;DHT22;1985;48.592;8.850;2022-09-14T09:23:43;23.30;99.90
3942;DHT22;1985;48.592;8.850;2022-09-14T09:26:17;23.50;99.90
3942;DHT22;1985;48.592;8.850;2022-09-14T09:28:46;23.70;99.90
3942;DHT22;1985;48.592;8.850;2022-09-14T09:31:14;23.80;99.90
3942;DHT22;1985;48.592;8.850;2022-09-14T09:33:41;23.90;99.90
3942;DHT22;1985;48.592;8.850;2022-09-14T09:36:07;23.90;99.90
3942;DHT22;1985;48.592;8.850;2022-09-14T09:38:35;23.80;99.90
3942;DHT22;1985;48.592;8.850;2022-09-14T09:41:04;23.80;99.90
3942;DHT22;1985;48.592;8.850;2022-09-14T09:43:32;23.80;99.90
3942;DHT22;1985;48.592;8.850;2022-09-14T09:46:03;24.10;99.90
3942;DHT22;1985;48.592;8.850;2022-09-14T09:48:41;24.10;99.90
3942;DHT22;1985;48.592;8.850;2022-09-14T09:53:53;24.30;99.90
3942;DHT22;1985;48.592;8.850;2022-09-14T09:56:22;24.50;99.90
3942;DHT22;1985;48.592;8.850;2022-09-14T09:58:48;24.80;99.90
3942;DHT22;1985;48.592;8.850;2022-09-14T10:01:30;24.90;99.90
3942;DHT22;1985;48.592;8.850;2022-09-14T10:06:25;25.00;99.90
3942;DHT22;1985;48.592;8.850;2022-09-14T10:08:52;25.00;99.90
3942;DHT22;1985;48.592;8.850;2022-09-14T10:11:36;25.00;99.90
3942;DHT22;1985;48.592;8.850;2022-09-14T10:14:27;24.90;99.90
3942;DHT22;1985;48.592;8.850;2022-09-14T10:17:07;24.70;99.90
3942;DHT22;1985;48.592;8.850;2022-09-14T10:19:40;24.70;99.90
3942;DHT22;1985;48.592;8.850;2022-09-14T10:22:29;24.60;99.90
3942;DHT22;1985;48.592;8.850;2022-09-14T10:30:12;24.60;99.90
3942;DHT22;1985;48.592;8.850;2022-09-14T10:32:40;24.60;99.90
3942;DHT22;1985;48.592;8.850;2022-09-14T10:35:12;24.60;99.90
3942;DHT22;1985;48.592;8.850;2022-09-14T10:40:35;24.60;99.90
3942;DHT22;1985;48.592;8.850;2022-09-14T10:43:14;24.60;99.90
3942;DHT22;1985;48.592;8.850;2022-09-14T10:45:50;24.80;99.90
3942;DHT22;1985;48.592;8.850;2022-09-14T10:48:29;25.00;99.90
3942;DHT22;1985;48.592;8.850;2022-09-14T10:51:33;24.90;99.90
3942;DHT22;1985;48.592;8.850;2022-09-14T11:05:36;25.60;99.90
3942;DHT22;1985;48.592;8.850;2022-09-14T11:08:14;26.00;99.90
3942;DHT22;1985;48.592;8.850;2022-09-14T11:21:44;26.10;99.90
3942;DHT22;1985;48.592;8.850;2022-09-14T11:24:56;26.00;99.90
3942;DHT22;1985;48.592;8.850;2022-09-14T11:29:50;25.70;99.90
3942;DHT22;1985;48.592;8.850;2022-09-14T11:32:28;25.70;99.90
3942;DHT22;1985;48.592;8.850;2022-09-14T11:35:25;25.70;99.90
3942;DHT22;1985;48.592;8.850;2022-09-14T11:38:05;25.60;99.90
3942;DHT22;1985;48.592;8.850;2022-09-14T11:46:32;25.40;99.90
3942;DHT22;1985;48.592;8.850;2022-09-14T11:49:09;25.10;99.90
3942;DHT22;1985;48.592;8.850;2022-09-14T11:51:48;24.90;99.90
3942;DHT22;1985;48.592;8.850;2022-09-14T11:54:19;24.90;99.90
3942;DHT22;1985;48.592;8.850;2022-09-14T11:56:55;24.60;99.90
3942;DHT22;1985;48.592;8.850;2022-09-14T12:10:18;23.10;99.90
3942;DHT22;1985;48.592;8.850;2022-09-14T12:12:53;22.60;99.90
3942;DHT22;1985;48.592;8.850;2022-09-14T12:20:37;21.20;99.90
3942;DHT22;1985;48.592;8.850;2022-09-14T12:23:57;21.00;99.90
3942;DHT22;1985;48.592;8.850;2022-09-14T12:35:58;20.20;99.90
3942;DHT22;1985;48.592;8.850;2022-09-14T12:51:37;19.80;99.90
3942;DHT22;1985;48.592;8.850;2022-09-14T13:04:52;19.40;99.90
3942;DHT22;1985;48.592;8.850;2022-09-14T13:07:20;19.40;99.90
3942;DHT22;1985;48.592;8.850;2022-09-14T13:09:48;19.30;99.90
3942;DHT22;1985;48.592;8.850;2022-09-14T13:12:41;19.30;99.90
3942;DHT22;1985;48.592;8.850;2022-09-14T13:15:32;19.30;99.90
3942;DHT22;1985;48.592;8.850;2022-09-14T13:20:24;19.40;99.90
3942;DHT22;1985;48.592;8.850;2022-09-14T13:22:50;19.40;99.90
3942;DHT22;1985;48.592;8.850;2022-09-14T13:27:51;19.40;99.90
3942;DHT22;1985;48.592;8.850;2022-09-14T13:30:20;19.40;99.90
3942;DHT22;1985;48.592;8.850;2022-09-14T13:32:48;19.40;99.90
3942;DHT22;1985;48.592;8.850;2022-09-14T13:35:23;19.40;99.90
3942;DHT22;1985;48.592;8.850;2022-09-14T13:37:49;19.50;99.90
3942;DHT22;1985;48.592;8.850;2022-09-14T13:40:15;19.50;99.90
3942;DHT22;1985;48.592;8.850;2022-09-14T13:42:41;19.40;99.90
3942;DHT22;1985;48.592;8.850;2022-09-14T13:45:10;19.30;99.90
3942;DHT22;1985;48.592;8.850;2022-09-14T13:47:37;19.20;99.90
3942;DHT22;1985;48.592;8.850;2022-09-14T13:50:06;19.10;99.90
3942;DHT22;1985;48.592;8.850;2022-09-14T13:52:36;19.10;99.90
3942;DHT22;1985;48.592;8.850;2022-09-14T13:55:28;19.10;99.90
3942;DHT22;1985;48.592;8.850;2022-09-14T14:05:54;19.40;99.90
3942;DHT22;1985;48.592;8.850;2022-09-14T14:08:33;19.50;99.90
3942;DHT22;1985;48.592;8.850;2022-09-14T14:11:00;19.60;99.90
3942;DHT22;1985;48.592;8.850;2022-09-14T14:13:29;19.60;99.90
3942;DHT22;1985;48.592;8.850;2022-09-14T14:16:22;19.60;99.90
3942;DHT22;1985;48.592;8.850;2022-09-14T14:23:53;19.70;99.90
3942;DHT22;1985;48.592;8.850;2022-09-14T14:26:38;19.70;99.90
3942;DHT22;1985;48.592;8.850;2022-09-14T14:29:11;19.60;99.90
3942;DHT22;1985;48.592;8.850;2022-09-14T14:31:39;19.60;99.90
3942;DHT22;1985;48.592;8.850;2022-09-14T14:34:15;19.40;99.90
3942;DHT22;1985;48.592;8.850;2022-09-14T14:36:43;19.30;99.90
3942;DHT22;1985;48.592;8.850;2022-09-14T14:39:09;19.00;99.90
3942;DHT22;1985;48.592;8.850;2022-09-14T14:41:34;18.80;99.90
3942;DHT22;1985;48.592;8.850;2022-09-14T14:44:01;18.60;99.90
3942;DHT22;1985;48.592;8.850;2022-09-14T14:46:26;18.50;99.90
3942;DHT22;1985;48.592;8.850;2022-09-14T14:48:53;18.40;99.90
3942;DHT22;1985;48.592;8.850;2022-09-14T14:51:19;18.40;99.90
3942;DHT22;1985;48.592;8.850;2022-09-14T14:53:46;18.30;99.90
3942;DHT22;1985;48.592;8.850;2022-09-14T14:56:12;18.40;99.90
3942;DHT22;1985;48.592;8.850;2022-09-14T14:58:43;18.30;99.90
3942;DHT22;1985;48.592;8.850;2022-09-14T15:01:09;18.30;99.90
3942;DHT22;1985;48.592;8.850;2022-09-14T15:03:34;18.30;99.90
3942;DHT22;1985;48.592;8.850;2022-09-14T15:06:10;18.40;99.90
3942;DHT22;1985;48.592;8.850;2022-09-14T15:08:36;18.30;99.90
3942;DHT22;1985;48.592;8.850;2022-09-14T15:11:02;18.30;99.90
3942;DHT22;1985;48.592;8.850;2022-09-14T15:13:27;18.40;99.90
3942;DHT22;1985;48.592;8.850;2022-09-14T15:15:53;18.50;99.90
3942;DHT22;1985;48.592;8.850;2022-09-14T15:18:19;18.60;99.90
3942;DHT22;1985;48.592;8.850;2022-09-14T15:20:44;18.70;99.90
3942;DHT22;1985;48.592;8.850;2022-09-14T15:23:11;19.00;99.90
3942;DHT22;1985;48.592;8.850;2022-09-14T15:25:38;19.20;99.90
3942;DHT22;1985;48.592;8.850;2022-09-14T15:28:04;19.40;99.90
3942;DHT22;1985;48.592;8.850;2022-09-14T15:30:29;19.80;99.90
3942;DHT22;1985;48.592;8.850;2022-09-14T15:32:55;20.00;99.90
3942;DHT22;1985;48.592;8.850;2022-09-14T15:35:21;20.20;99.90
3942;DHT22;1985;48.592;8.850;2022-09-14T15:37:47;20.40;99.90
3942;DHT22;1985;48.592;8.850;2022-09-14T15:40:13;20.50;99.90
3942;DHT22;1985;48.592;8.850;2022-09-14T15:42:38;20.40;99.90
3942;DHT22;1985;48.592;8.850;2022-09-14T15:45:05;20.40;99.90
3942;DHT22;1985;48.592;8.850;2022-09-14T15:47:30;20.40;99.90
3942;DHT22;1985;48.592;8.850;2022-09-14T15:49:56;20.60;99.90
3942;DHT22;1985;48.592;8.850;2022-09-14T15:52:21;20.70;99.90
3942;DHT22;1985;48.592;8.850;2022-09-14T15:54:47;20.80;99.90
3942;DHT22;1985;48.592;8.850;2022-09-14T15:57:13;20.70;99.90
3942;DHT22;1985;48.592;8.850;2022-09-14T15:59:39;20.80;99.90
3942;DHT22;1985;48.592;8.850;2022-09-14T16:02:05;20.70;99.90
3942;DHT22;1985;48.592;8.850;2022-09-14T16:04:35;20.50;99.90
3942;DHT22;1985;48.592;8.850;2022-09-14T16:07:02;20.50;99.90
3942;DHT22;1985;48.592;8.850;2022-09-14T16:09:29;20.40;99.90
3942;DHT22;1985;48.592;8.850;2022-09-14T16:11:55;20.40;99.90
3942;DHT22;1985;48.592;8.850;2022-09-14T16:14:21;20.50;99.90
3942;DHT22;1985;48.592;8.850;2022-09-14T16:16:46;20.60;99.90
3942;DHT22;1985;48.592;8.850;2022-09-14T16:19:13;20.70;99.90
3942;DHT22;1985;48.592;8.850;2022-09-14T16:21:40;20.80;99.90
3942;DHT22;1985;48.592;8.850;2022-09-14T16:24:12;20.90;99.90
3942;DHT22;1985;48.592;8.850;2022-09-14T16:26:39;20.90;99.90
3942;DHT22;1985;48.592;8.850;2022-09-14T16:29:06;20.80;99.90
3942;DHT22;1985;48.592;8.850;2022-09-14T16:31:34;20.90;99.90
3942;DHT22;1985;48.592;8.850;2022-09-14T16:34:04;20.80;99.90
3942;DHT22;1985;48.592;8.850;2022-09-14T16:36:33;20.70;99.90
3942;DHT22;1985;48.592;8.850;2022-09-14T16:39:02;20.70;99.90
3942;DHT22;1985;48.592;8.850;2022-09-14T16:41:28;20.70;99.90
3942;DHT22;1985;48.592;8.850;2022-09-14T16:43:58;20.80;99.90
3942;DHT22;1985;48.592;8.850;2022-09-14T16:46:25;20.80;99.90
3942;DHT22;1985;48.592;8.850;2022-09-14T16:48:51;20.90;99.90
3942;DHT22;1985;48.592;8.850;2022-09-14T16:51:22;20.90;99.90
3942;DHT22;1985;48.592;8.850;2022-09-14T16:53:49;20.90;99.90
3942;DHT22;1985;48.592;8.850;2022-09-14T16:56:17;20.90;99.90
3942;DHT22;1985;48.592;8.850;2022-09-14T16:58:44;20.80;99.90
3942;DHT22;1985;48.592;8.850;2022-09-14T17:01:13;20.70;99.90
3942;DHT22;1985;48.592;8.850;2022-09-14T17:03:40;20.70;99.90
3942;DHT22;1985;48.592;8.850;2022-09-14T17:06:17;20.60;99.90
3942;DHT22;1985;48.592;8.850;2022-09-14T17:08:43;20.60;99.90
3942;DHT22;1985;48.592;8.850;2022-09-14T17:11:09;20.70;99.90
3942;DHT22;1985;48.592;8.850;2022-09-14T17:13:35;20.60;99.90
3942;DHT22;1985;48.592;8.850;2022-09-14T17:16:02;20.50;99.90
3942;DHT22;1985;48.592;8.850;2022-09-14T17:18:28;20.50;99.90
3942;DHT22;1985;48.592;8.850;2022-09-14T17:20:59;20.50;99.90
3942;DHT22;1985;48.592;8.850;2022-09-14T17:23:26;20.50;99.90
3942;DHT22;1985;48.592;8.850;2022-09-14T17:25:52;20.30;99.90
3942;DHT22;1985;48.592;8.850;2022-09-14T17:28:27;20.20;99.90
3942;DHT22;1985;48.592;8.850;2022-09-14T17:30:57;20.10;99.90
3942;DHT22;1985;48.592;8.850;2022-09-14T17:33:23;20.10;99.90
3942;DHT22;1985;48.592;8.850;2022-09-14T17:35:51;20.10;99.90
3942;DHT22;1985;48.592;8.850;2022-09-14T17:38:18;20.00;99.90
3942;DHT22;1985;48.592;8.850;2022-09-14T17:40:44;19.90;99.90
3942;DHT22;1985;48.592;8.850;2022-09-14T17:43:10;19.90;99.90
3942;DHT22;1985;48.592;8.850;2022-09-14T17:45:37;19.90;99.90
3942;DHT22;1985;48.592;8.850;2022-09-14T17:48:04;19.90;99.90
3942;DHT22;1985;48.592;8.850;2022-09-14T17:50:30;19.90;99.90
3942;DHT22;1985;48.592;8.850;2022-09-14T17:52:56;19.90;99.90
3942;DHT22;1985;48.592;8.850;2022-09-14T17:55:22;19.80;99.90
3942;DHT22;1985;48.592;8.850;2022-09-14T17:57:48;19.80;99.90
3942;DHT22;1985;48.592;8.850;2022-09-14T18:00:14;19.80;99.90
3942;DHT22;1985;48.592;8.850;2022-09-14T18:02:40;19.80;99.90
3942;DHT22;1985;48.592;8.850;2022-09-14T18:05:06;19.80;99.90
3942;DHT22;1985;48.592;8.850;2022-09-14T18:07:31;19.80;99.90
3942;DHT22;1985;48.592;8.850;2022-09-14T18:09:57;19.60;99.90
3942;DHT22;1985;48.592;8.850;2022-09-14T18:12:23;19.50;99.90
3942;DHT22;1985;48.592;8.850;2022-09-14T18:14:49;19.50;99.90
3942;DHT22;1985;48.592;8.850;2022-09-14T18:17:15;19.50;99.90
3942;DHT22;1985;48.592;8.850;2022-09-14T18:19:41;19.60;99.90
3942;DHT22;1985;48.592;8.850;2022-09-14T18:22:07;19.60;99.90
3942;DHT22;1985;48.592;8.850;2022-09-14T18:24:33;19.60;99.90
3942;DHT22;1985;48.592;8.850;2022-09-14T18:26:59;19.70;99.90
3942;DHT22;1985;48.592;8.850;2022-09-14T18:29:25;19.70;99.90
3942;DHT22;1985;48.592;8.850;2022-09-14T18:31:54;19.60;99.90
3942;DHT22;1985;48.592;8.850;2022-09-14T18:34:20;19.60;99.90
3942;DHT22;1985;48.592;8.850;2022-09-14T18:36:46;19.50;99.90
3942;DHT22;1985;48.592;8.850;2022-09-14T18:39:12;19.50;99.90
3942;DHT22;1985;48.592;8.850;2022-09-14T18:41:38;19.50;99.90
3942;DHT22;1985;48.592;8.850;2022-09-14T18:44:04;19.60;99.90
3942;DHT22;1985;48.592;8.850;2022-09-14T18:46:30;19.60;99.90
3942;DHT22;1985;48.592;8.850;2022-09-14T18:48:57;19.60;99.90
3942;DHT22;1985;48.592;8.850;2022-09-14T18:51:24;19.70;99.90
3942;DHT22;1985;48.592;8.850;2022-09-14T18:54:01;19.80;99.90
3942;DHT22;1985;48.592;8.850;2022-09-14T18:56:28;19.90;99.90
3942;DHT22;1985;48.592;8.850;2022-09-14T18:58:57;19.90;99.90
3942;DHT22;1985;48.592;8.850;2022-09-14T19:01:24;19.90;99.90
3942;DHT22;1985;48.592;8.850;2022-09-14T19:03:50;19.90;99.90